createdAt,value
2022-12-17T00:01:43.762Z,17.8
2022-12-17T00:09:23.902Z,17.85
2022-12-17T00:16:59.784Z,17.96
2022-12-17T00:24:40.476Z,17.87
2022-12-17T00:32:22.949Z,17.76
2022-12-17T00:39:57.677Z,17.8
2022-12-17T00:47:35.916Z,17.86
2022-12-17T00:55:08.554Z,17.8
2022-12-17T01:02:33.545Z,17.79
2022-12-17T01:10:01.433Z,17.78
2022-12-17T01:17:48.024Z,17.88
2022-12-17T01:25:08.202Z,17.7
2022-12-17T01:32:49.831Z,17.97
2022-12-17T01:40:23.820Z,17.72
2022-12-17T01:48:13.444Z,17.93
2022-12-17T01:56:04.007Z,17.78
2022-12-17T02:03:43.910Z,17.71
2022-12-17T02:11:43.091Z,17.56
2022-12-17T02:20:11.139Z,17.59
2022-12-17T02:28:10.817Z,17.56
2022-12-17T02:35:58.984Z,17.45
2022-12-17T02:43:34.094Z,17.46
2022-12-17T02:51:08.416Z,17.44
2022-12-17T02:58:45.479Z,17.41
2022-12-17T03:06:10.990Z,17.33
2022-12-17T03:13:41.438Z,17.2
2022-12-17T03:21:25.457Z,17.26
2022-12-17T03:29:09.839Z,17.34
2022-12-17T03:36:40.144Z,17.36
2022-12-17T03:44:00.483Z,17.27
2022-12-17T03:51:36.045Z,17.37
2022-12-17T03:58:58.718Z,17.32
2022-12-17T04:06:21.622Z,17.34
2022-12-17T04:12:58.189Z,17.71
2022-12-17T04:19:31.749Z,17.8
2022-12-17T04:25:56.682Z,17.86
2022-12-17T04:32:24.984Z,17.9
2022-12-17T04:38:56.670Z,17.78
2022-12-17T04:45:26.531Z,17.85
2022-12-17T04:51:52.621Z,17.79
2022-12-17T04:58:16.941Z,17.78
2022-12-17T05:04:41.675Z,17.81
2022-12-17T05:11:10.878Z,18.02
2022-12-17T05:17:39.693Z,18.82
2022-12-17T05:24:08.709Z,18.99
2022-12-17T05:30:40.607Z,19.16
2022-12-17T05:37:06.668Z,19.53
2022-12-17T05:43:36.237Z,20.34
2022-12-17T05:50:04.665Z,20.66
2022-12-17T06:03:16.862Z,21.2
2022-12-17T06:09:47.177Z,21.14
2022-12-17T06:16:13.821Z,20.88
2022-12-17T06:22:37.728Z,20.7
2022-12-17T06:29:12.680Z,20.77
2022-12-17T06:35:36.671Z,20.5
2022-12-17T06:42:04.115Z,20.61
2022-12-17T06:48:38.040Z,20.8
2022-12-17T06:55:02.750Z,20.61
2022-12-17T07:01:27.814Z,20.58
2022-12-17T07:08:00.244Z,20.58
2022-12-17T07:14:22.761Z,20.56
2022-12-17T07:20:47.039Z,20.47
2022-12-17T07:27:14.772Z,20.44
2022-12-17T07:33:45.718Z,20.38
2022-12-17T07:40:07.733Z,20.55
2022-12-17T07:46:35.270Z,20.6
2022-12-17T07:52:59.258Z,20.43
2022-12-17T07:59:24.777Z,20.54
2022-12-17T08:05:52.941Z,20.39
2022-12-17T08:12:19.626Z,20.34
2022-12-17T08:18:51.284Z,20.37
2022-12-17T08:25:13.764Z,20.23
2022-12-17T08:31:43.580Z,20.4
2022-12-17T08:38:12.820Z,20.39
2022-12-17T08:44:34.781Z,20.42
2022-12-17T08:51:01.690Z,20.4
2022-12-17T08:57:32.304Z,20.25
2022-12-17T09:03:57.048Z,20.27
2022-12-17T09:10:28.704Z,20.04
2022-12-17T09:16:54.874Z,20.01
2022-12-17T09:23:24.216Z,20.33
2022-12-17T09:29:52.614Z,20.49
2022-12-17T09:36:22.786Z,20.24
2022-12-17T09:43:01.787Z,20.25
2022-12-17T09:50:04.797Z,20.15
2022-12-17T09:56:56.705Z,20.02
2022-12-17T10:03:36.275Z,20.09
2022-12-17T10:10:28.320Z,20.15
2022-12-17T10:17:12.159Z,20.48
2022-12-17T10:24:03.771Z,20.29
2022-12-17T10:30:53.097Z,20.38
2022-12-17T10:37:35.660Z,20.24
2022-12-17T10:44:15.727Z,20.24
2022-12-17T10:51:09.090Z,20.1
2022-12-17T10:58:12.852Z,20.1
2022-12-17T11:05:02.829Z,20.21
2022-12-17T11:12:01.701Z,20.3
2022-12-17T11:18:56.789Z,20.39
2022-12-17T11:26:02.787Z,20.4
2022-12-17T11:33:00.168Z,20.23
2022-12-17T11:40:13.847Z,20.31
2022-12-17T11:47:32.125Z,20.2
2022-12-17T11:54:43.016Z,20.06
2022-12-17T12:01:53.211Z,20.24
2022-12-17T12:09:03.926Z,20.01
2022-12-17T12:16:02.931Z,20.37
2022-12-17T12:23:11.872Z,20.24
2022-12-17T12:30:16.768Z,20.33
2022-12-17T12:37:12.799Z,20.24
2022-12-17T12:44:18.669Z,20.23
2022-12-17T12:51:33.895Z,20.16
2022-12-17T12:58:21.263Z,20.13
2022-12-17T13:05:13.236Z,20.08
2022-12-17T13:12:24.823Z,20.25
2022-12-17T13:19:37.624Z,20.35
2022-12-17T13:26:22.831Z,20.22
2022-12-17T13:33:26.984Z,20.3
2022-12-17T13:40:06.975Z,20.35
2022-12-17T13:47:08.754Z,20.7
2022-12-17T13:53:55.238Z,20.95
2022-12-17T14:00:36.846Z,21.21
2022-12-17T14:07:15.274Z,20.94
2022-12-17T14:13:50.841Z,20.87
2022-12-17T14:20:33.328Z,20.47
2022-12-17T14:27:07.963Z,20.29
2022-12-17T14:34:10.778Z,20.29
2022-12-17T14:40:51.902Z,20.26
2022-12-17T14:47:47.207Z,20.01
2022-12-17T14:54:35.185Z,20.05
2022-12-17T15:01:23.004Z,19.96
2022-12-17T15:08:02.969Z,19.87
2022-12-17T15:14:38.961Z,19.94
2022-12-17T15:21:01.355Z,19.99
2022-12-17T15:27:35.952Z,19.83
2022-12-17T15:34:08.401Z,19.82
2022-12-17T15:40:41.732Z,19.78
2022-12-17T15:47:20.889Z,19.76
2022-12-17T15:53:47.990Z,19.79
2022-12-17T16:00:15.180Z,19.75
2022-12-17T16:06:41.162Z,19.65
2022-12-17T16:13:10.175Z,19.8
2022-12-17T16:19:52.896Z,19.88
2022-12-17T16:26:17.947Z,19.56
2022-12-17T16:32:44.464Z,19.6
2022-12-17T16:39:17.989Z,19.7
2022-12-17T16:45:47.540Z,19.62
2022-12-17T16:52:28.953Z,19.49
2022-12-17T16:58:54.890Z,19.36
2022-12-17T17:05:24.078Z,19.3
2022-12-17T17:12:00.920Z,19.27
2022-12-17T17:18:35.793Z,19.28
2022-12-17T17:25:07.268Z,19.35
2022-12-17T17:32:09.561Z,19.25
2022-12-17T17:38:18.973Z,19.14
2022-12-17T17:44:49.992Z,19.03
2022-12-17T17:51:19.384Z,19.08
2022-12-17T17:58:05.168Z,19.05
2022-12-17T18:04:43.383Z,19.11
2022-12-17T18:11:10.994Z,19.22
2022-12-17T18:17:34.076Z,19.22
2022-12-17T18:24:05.770Z,19.22
2022-12-17T18:30:43.980Z,19.23
2022-12-17T18:37:10.123Z,19.14
2022-12-17T18:43:41.160Z,19.08
2022-12-17T18:50:14.973Z,19.1
2022-12-17T18:57:03.479Z,19.18
2022-12-17T19:03:30.073Z,19.12
2022-12-17T19:10:00.000Z,19.07
2022-12-17T19:16:24.399Z,19.2
2022-12-17T19:22:52.063Z,19.16
2022-12-17T19:29:23.585Z,19.43
2022-12-17T19:35:52.910Z,19.46
2022-12-17T19:42:30.625Z,19.46
2022-12-17T19:49:13.159Z,19.41
2022-12-17T19:55:46.184Z,19.33
2022-12-17T20:02:21.210Z,19.18
2022-12-17T20:08:55.069Z,19.18
2022-12-17T20:15:31.234Z,19.2
2022-12-17T20:22:04.198Z,19.39
2022-12-17T20:28:34.494Z,19.49
2022-12-17T20:35:04.063Z,19.37
2022-12-17T20:41:31.063Z,19.37
2022-12-17T20:48:06.997Z,19.39
2022-12-17T20:54:46.365Z,19.51
2022-12-17T21:01:13.974Z,19.42
2022-12-17T21:07:46.027Z,19.44
2022-12-17T21:14:23.340Z,19.41
2022-12-17T21:20:57.916Z,19.38
2022-12-17T21:27:23.554Z,19.36
2022-12-17T21:33:53.038Z,19.37
2022-12-17T21:40:22.993Z,19.26
2022-12-17T21:46:56.018Z,19.18
2022-12-17T21:53:27.047Z,19.25
2022-12-17T22:06:34.070Z,19.11
2022-12-17T22:13:15.533Z,19.04
2022-12-17T22:19:48.669Z,19.1
2022-12-17T22:26:21.072Z,18.99
2022-12-17T22:32:47.106Z,18.94
2022-12-17T22:41:10.099Z,18.94
2022-12-17T22:45:57.972Z,18.94
2022-12-17T22:52:27.131Z,18.86
2022-12-17T22:58:53.307Z,18.8
2022-12-17T23:05:30.619Z,18.97
2022-12-17T23:12:02.597Z,18.78
2022-12-17T23:18:46.438Z,18.88
2022-12-17T23:25:13.033Z,18.74
2022-12-17T23:31:52.591Z,18.64
2022-12-17T23:38:18.505Z,18.52
2022-12-17T23:44:41.916Z,18.42
2022-12-17T23:51:11.172Z,18.5
2022-12-17T23:57:35.139Z,18.44
